Time;durP1;ratioP1;P1;durP2;ratioP2;P2;SDS_P1;SDS_P2;PMS_P1;PMS_P2;Temp;Humidity;BMP_temperature;BMP_pressure;BME280_temperature;BME280_humidity;BME280_pressure;Samples;Min_cycle;Max_cycle;Signal;HPM_P1;HPM_P2
2022/11/06 00:02:16;;;;;;;3.00;2.70;;;;;;;22.39;58.00;97911.81;5036716;28;20221;-31
2022/11/06 00:04:46;;;;;;;2.63;2.43;;;;;;;22.32;57.82;97900.50;5044954;28;20284;-31
2022/11/06 00:07:12;;;;;;;2.90;2.70;;;;;;;22.34;57.89;97906.56;5049363;28;20205;-31
2022/11/06 00:09:39;;;;;;;3.13;2.60;;;;;;;22.38;58.02;97912.66;5047000;28;20236;-31
2022/11/06 00:12:06;;;;;;;2.90;2.70;;;;;;;22.39;57.98;97911.81;5049904;28;20220;-31
2022/11/06 00:14:32;;;;;;;2.93;2.73;;;;;;;22.39;58.03;97922.94;5044152;28;20209;-31
2022/11/06 00:16:59;;;;;;;3.17;2.87;;;;;;;22.38;57.98;97913.50;5051019;28;20204;-31
2022/11/06 00:19:25;;;;;;;3.23;2.97;;;;;;;22.38;58.30;97918.63;5051671;28;20197;-31
2022/11/06 00:21:52;;;;;;;3.00;2.80;;;;;;;22.38;58.04;97910.94;5052141;28;20224;-31
2022/11/06 00:24:18;;;;;;;2.80;2.50;;;;;;;22.32;58.01;97903.06;5063943;28;20207;-31
2022/11/06 00:26:45;;;;;;;2.87;2.67;;;;;;;22.32;58.00;97897.09;5052398;28;20205;-31
2022/11/06 00:29:19;;;;;;;2.80;2.60;;;;;;;22.38;58.04;97904.97;5056004;28;20249;-31
2022/11/06 00:31:48;;;;;;;2.93;2.73;;;;;;;22.38;58.04;97910.09;5058079;28;20220;-31
2022/11/06 00:34:14;;;;;;;3.53;2.70;;;;;;;22.38;58.06;97910.94;5051696;28;20687;-31
2022/11/06 00:36:41;;;;;;;2.80;2.60;;;;;;;22.38;58.11;97904.97;5051903;28;20674;-31
2022/11/06 00:39:08;;;;;;;2.80;2.60;;;;;;;22.37;58.05;97903.19;5051477;28;20213;-31
2022/11/06 00:41:34;;;;;;;2.97;2.77;;;;;;;22.37;58.14;97904.09;5041055;28;20228;-31
2022/11/06 00:44:01;;;;;;;2.70;2.50;;;;;;;22.38;58.03;97902.41;5054653;28;20653;-31
2022/11/06 00:46:28;;;;;;;3.00;2.70;;;;;;;22.38;58.00;97905.81;5056529;28;20211;-31
2022/11/06 00:48:54;;;;;;;2.50;2.30;;;;;;;22.38;58.03;97900.69;5051668;28;20314;-31
2022/11/06 00:51:26;;;;;;;2.70;2.50;;;;;;;22.39;57.95;97901.56;5055846;28;20373;-31
2022/11/06 00:53:57;;;;;;;3.70;2.83;;;;;;;22.39;58.03;97893.88;5052773;28;20201;-31
2022/11/06 00:56:24;;;;;;;3.03;2.73;;;;;;;22.39;58.03;97899.00;5052047;28;20200;-31
2022/11/06 00:58:51;;;;;;;2.70;2.50;;;;;;;22.39;58.00;97896.44;5052438;28;20566;-31
2022/11/06 01:01:23;;;;;;;2.90;2.70;;;;;;;22.38;58.05;97892.16;5058893;28;20228;-31
2022/11/06 01:04:05;;;;;;;2.83;2.63;;;;;;;22.39;58.07;97891.31;5051787;28;20232;-31
2022/11/06 01:06:34;;;;;;;3.00;2.80;;;;;;;22.37;58.05;97886.16;5051260;28;20674;-31
2022/11/06 01:09:00;;;;;;;2.90;2.70;;;;;;;22.37;58.08;97891.28;5051994;28;20247;-31
2022/11/06 01:11:35;;;;;;;3.20;2.60;;;;;;;22.38;58.04;97898.13;5045849;28;20218;-31
2022/11/06 01:14:22;;;;;;;2.70;2.50;;;;;;;22.38;58.03;97898.13;5046571;28;20266;-31
2022/11/06 01:16:48;;;;;;;3.57;2.80;;;;;;;22.37;58.06;97903.19;5051643;28;20193;-31
2022/11/06 01:19:16;;;;;;;2.87;2.67;;;;;;;22.37;58.19;97900.66;5056411;28;20565;-31
2022/11/06 01:21:45;;;;;;;3.80;2.70;;;;;;;22.37;58.12;97906.66;5055525;28;20231;-31
2022/11/06 01:24:14;;;;;;;2.90;2.70;;;;;;;22.37;58.14;97893.84;5047797;28;20197;-31
2022/11/06 01:26:40;;;;;;;3.37;2.83;;;;;;;22.37;57.83;97900.66;5054008;28;20208;-31
2022/11/06 01:29:27;;;;;;;2.60;2.40;;;;;;;22.36;58.06;97892.13;5050029;28;20217;-31
2022/11/06 01:31:53;;;;;;;2.60;2.40;;;;;;;22.38;57.46;97897.28;5067426;28;20703;-31
2022/11/06 01:34:20;;;;;;;2.83;2.63;;;;;;;22.31;57.92;97883.41;5055132;28;20212;-31
2022/11/06 01:36:59;;;;;;;2.67;2.47;;;;;;;22.35;58.05;97881.81;5053786;28;20201;-31
2022/11/06 01:39:25;;;;;;;2.57;2.37;;;;;;;22.38;57.95;97887.88;5053395;28;20201;-31
2022/11/06 01:41:52;;;;;;;2.60;2.40;;;;;;;22.37;57.96;97901.53;5055080;28;20224;-31
2022/11/06 01:44:40;;;;;;;2.80;2.60;;;;;;;22.38;57.95;97887.88;5054832;28;20234;-31
2022/11/06 01:47:24;;;;;;;2.70;2.50;;;;;;;22.37;57.96;97887.84;5052344;28;20202;-31
2022/11/06 01:49:59;;;;;;;3.00;2.80;;;;;;;22.38;58.00;97879.34;5054897;28;20232;-31
2022/11/06 01:52:26;;;;;;;2.63;2.43;;;;;;;22.38;57.94;97885.31;5040983;28;20223;-31
2022/11/06 01:54:56;;;;;;;2.70;2.50;;;;;;;22.30;57.98;97868.88;5053850;28;20193;-31
2022/11/06 01:57:22;;;;;;;2.70;2.50;;;;;;;22.34;58.09;97874.94;5049436;28;20206;-31
2022/11/06 01:59:49;;;;;;;2.77;2.57;;;;;;;22.37;58.06;97880.16;5051204;28;20201;-31
2022/11/06 02:02:16;;;;;;;2.77;2.57;;;;;;;22.36;57.62;97879.31;5056037;28;20702;-31
2022/11/06 02:04:44;;;;;;;2.57;2.37;;;;;;;22.37;58.05;97877.59;5054603;28;20668;-31
2022/11/06 02:07:11;;;;;;;2.80;2.60;;;;;;;21.78;58.01;97778.44;5045056;28;20830;-31
2022/11/06 02:09:37;;;;;;;2.60;2.40;;;;;;;22.32;58.07;97872.31;5057665;28;20217;-31
2022/11/06 02:12:03;;;;;;;2.63;2.43;;;;;;;22.35;58.15;97872.44;5053025;28;20228;-31
2022/11/06 02:14:44;;;;;;;2.57;2.37;;;;;;;22.34;58.04;97862.13;5050961;28;20217;-31
2022/11/06 02:17:26;;;;;;;2.63;2.43;;;;;;;22.35;58.01;97864.75;5044346;28;20207;-31
2022/11/06 02:20:28;;;;;;;2.73;2.53;;;;;;;22.36;58.08;97863.06;5054257;28;20193;-31
2022/11/06 02:23:09;;;;;;;2.60;2.40;;;;;;;22.36;58.01;97869.06;5047479;28;20208;-31
2022/11/06 02:25:56;;;;;;;2.70;2.50;;;;;;;22.37;58.06;97870.78;5056505;28;20212;-31
2022/11/06 02:28:25;;;;;;;2.90;2.70;;;;;;;22.36;57.89;97874.19;5052474;28;20223;-31
2022/11/06 02:30:52;;;;;;;2.70;2.50;;;;;;;22.37;57.91;97869.91;5031924;28;20220;-31
2022/11/06 02:33:24;;;;;;;2.77;2.50;;;;;;;22.36;58.03;97869.06;5053657;28;20197;-31
2022/11/06 02:36:05;;;;;;;2.90;2.70;;;;;;;22.36;57.99;97863.94;5036442;28;20197;-31
2022/11/06 02:38:42;;;;;;;2.80;2.60;;;;;;;22.33;57.89;97855.28;5032186;28;20219;-31
2022/11/06 02:41:15;;;;;;;3.10;2.90;;;;;;;22.38;58.05;97877.66;5028080;28;20217;-31
2022/11/06 02:43:43;;;;;;;2.70;2.50;;;;;;;22.37;57.95;97870.78;5032395;28;20198;-31
2022/11/06 02:46:25;;;;;;;3.03;2.60;;;;;;;22.37;57.98;97869.91;5049689;28;20204;-31
2022/11/06 02:48:55;;;;;;;3.07;2.80;;;;;;;22.35;57.97;97863.91;5054571;28;20201;-31
2022/11/06 02:51:23;;;;;;;2.70;2.50;;;;;;;22.27;57.88;97847.41;5018673;28;20225;-31
2022/11/06 02:53:49;;;;;;;2.80;2.60;;;;;;;22.37;58.05;97865.66;5032678;28;20208;-31
2022/11/06 02:56:27;;;;;;;2.90;2.70;;;;;;;22.34;58.09;97864.69;5036995;28;20207;-31
2022/11/06 02:59:02;;;;;;;2.97;2.67;;;;;;;22.36;57.95;97869.06;5033689;28;20600;-31
2022/11/06 03:01:33;;;;;;;2.77;2.57;;;;;;;22.34;57.94;97862.13;5049561;28;20606;-31
2022/11/06 03:04:04;;;;;;;3.47;3.17;;;;;;;22.37;58.03;97869.91;5054088;28;20201;-31
2022/11/06 03:06:37;;;;;;;2.80;2.60;;;;;;;22.37;57.89;97864.78;5048921;28;20200;-31
2022/11/06 03:09:06;;;;;;;2.90;2.70;;;;;;;22.35;58.12;97861.34;5052701;28;20209;-32
2022/11/06 03:11:42;;;;;;;2.70;2.50;;;;;;;22.29;58.13;97856.88;5051558;28;20236;-31
2022/11/06 03:14:15;;;;;;;2.50;2.30;;;;;;;22.38;58.00;97869.97;5032530;28;20205;-31
2022/11/06 03:17:09;;;;;;;2.90;2.70;;;;;;;22.38;57.87;97869.13;5051629;28;20211;-31
2022/11/06 03:19:44;;;;;;;2.87;2.67;;;;;;;22.38;57.93;97856.31;5048663;28;20203;-31
2022/11/06 03:22:12;;;;;;;3.60;2.53;;;;;;;22.33;58.09;97855.28;5061658;28;20223;-31
2022/11/06 03:25:03;;;;;;;2.70;2.50;;;;;;;22.39;57.96;97860.59;5053353;28;20204;-31
2022/11/06 03:28:00;;;;;;;2.80;2.60;;;;;;;22.39;57.96;97863.16;5052690;28;20667;-31
2022/11/06 03:30:27;;;;;;;3.10;2.80;;;;;;;22.39;57.88;97860.59;5051464;28;20695;-31
2022/11/06 03:32:57;;;;;;;2.80;2.60;;;;;;;22.35;58.04;97853.66;5051034;28;20197;-31
2022/11/06 03:35:34;;;;;;;2.87;2.67;;;;;;;22.30;57.81;97845.84;5052639;28;20208;-31
2022/11/06 03:38:04;;;;;;;2.90;2.70;;;;;;;22.38;57.98;97859.72;5047963;28;20205;-31
2022/11/06 03:40:31;;;;;;;4.00;2.60;;;;;;;22.38;57.87;97857.16;5061061;28;20212;-31
2022/11/06 03:43:01;;;;;;;2.87;2.67;;;;;;;22.30;57.87;97839.81;5043907;28;20773;-31
2022/11/06 03:45:27;;;;;;;2.70;2.50;;;;;;;22.28;58.24;97831.22;5063673;28;20223;-31
2022/11/06 03:47:57;;;;;;;3.20;2.90;;;;;;;22.38;57.78;97851.19;5051812;28;20197;-31
2022/11/06 03:50:36;;;;;;;3.17;2.87;;;;;;;22.38;57.97;97844.34;5038489;28;20208;-31
2022/11/06 03:53:09;;;;;;;3.30;3.00;;;;;;;22.39;57.68;97841.00;5062339;28;20200;-31
2022/11/06 03:55:39;;;;;;;2.83;2.43;;;;;;;22.38;58.06;97839.22;5046373;28;20201;-31
2022/11/06 03:58:08;;;;;;;3.00;2.80;;;;;;;22.39;57.92;97832.44;5028449;28;20209;-31
2022/11/06 04:00:35;;;;;;;3.33;3.07;;;;;;;22.28;57.75;97808.16;5029864;28;20193;-31
2022/11/06 04:03:05;;;;;;;2.97;2.73;;;;;;;22.32;57.89;97817.72;5043288;28;20580;-31
2022/11/06 04:05:35;;;;;;;2.90;2.70;;;;;;;22.30;57.92;97809.97;5039849;28;20266;-31
2022/11/06 04:16:19;;;;;;;3.17;2.87;;;;;;;22.38;57.91;97816.19;5035870;28;20201;-31
2022/11/06 04:18:46;;;;;;;2.83;2.63;;;;;;;22.39;57.76;97822.19;5051047;28;20207;-31
2022/11/06 04:21:39;;;;;;;3.07;2.77;;;;;;;22.38;57.81;97823.88;5051742;28;20239;-31
2022/11/06 04:27:07;;;;;;;3.20;3.00;;;;;;;22.38;57.87;97829.00;5052027;28;20201;-31
2022/11/06 04:30:07;;;;;;;2.87;2.67;;;;;;;22.39;57.82;97822.19;5051386;28;20219;-31
2022/11/06 04:32:39;;;;;;;3.13;2.83;;;;;;;22.38;57.87;97826.44;5046101;28;20221;-31
2022/11/06 04:35:14;;;;;;;3.43;3.13;;;;;;;22.32;57.99;97821.13;5053461;28;20574;-31
2022/11/06 04:38:08;;;;;;;2.80;2.60;;;;;;;22.38;57.86;97826.44;5053755;28;20218;-31
2022/11/06 04:41:17;;;;;;;3.10;2.90;;;;;;;22.37;57.84;97811.00;5048923;28;20630;-30
2022/11/06 04:44:08;;;;;;;2.90;2.70;;;;;;;22.38;57.75;97813.63;5083134;28;20712;-31
2022/11/06 04:46:51;;;;;;;2.93;2.73;;;;;;;22.32;57.72;97805.75;5056714;28;20211;-31
2022/11/06 04:49:17;;;;;;;3.40;3.10;;;;;;;22.38;57.49;97817.91;5036853;28;20551;-31
2022/11/06 04:51:45;;;;;;;3.20;2.90;;;;;;;22.26;57.82;97792.75;5041568;28;20732;-31
2022/11/06 04:54:11;;;;;;;2.67;2.47;;;;;;;22.27;57.67;97791.09;5031259;28;20208;-31
2022/11/06 04:56:38;;;;;;;3.57;3.27;;;;;;;22.38;57.80;97813.63;5048744;28;20209;-31
2022/11/06 04:59:13;;;;;;;3.60;3.30;;;;;;;22.34;57.76;97800.69;5052080;28;20292;-31
2022/11/06 05:01:40;;;;;;;3.50;3.20;;;;;;;22.36;57.73;97799.03;5052570;28;20213;-31
2022/11/06 05:04:07;;;;;;;3.33;3.03;;;;;;;22.37;57.73;97800.78;5060775;28;20287;-31
2022/11/06 05:06:33;;;;;;;3.07;2.80;;;;;;;22.37;57.74;97800.78;5049797;28;20193;-31
2022/11/06 05:09:00;;;;;;;2.80;2.60;;;;;;;22.39;57.61;97794.91;5051419;28;21036;-31
2022/11/06 05:11:27;;;;;;;3.00;2.70;;;;;;;22.36;57.67;97792.25;5049555;28;20231;-31
2022/11/06 05:13:53;;;;;;;2.77;2.57;;;;;;;22.38;57.64;97802.53;5053139;28;20578;-31
2022/11/06 05:16:20;;;;;;;2.80;2.60;;;;;;;22.37;57.71;97801.66;5057285;28;20296;-31
2022/11/06 05:18:46;;;;;;;2.70;2.50;;;;;;;22.37;57.86;97787.97;5054110;28;20203;-31
2022/11/06 05:23:58;;;;;;;2.93;2.73;;;;;;;22.39;57.90;97794.00;5057390;28;20197;-31
2022/11/06 05:26:24;;;;;;;2.90;2.70;;;;;;;22.39;57.59;97788.91;5051542;28;20205;-31
2022/11/06 05:28:51;;;;;;;3.13;2.83;;;;;;;22.38;57.87;97787.16;5052909;28;20205;-31
2022/11/06 05:31:17;;;;;;;3.10;2.80;;;;;;;22.39;57.90;97791.44;5054617;28;20220;-31
2022/11/06 05:33:44;;;;;;;2.93;2.73;;;;;;;22.37;57.59;97781.16;5058867;28;20202;-31
2022/11/06 05:36:10;;;;;;;3.07;2.87;;;;;;;22.38;57.63;97788.00;5050594;28;20196;-31
2022/11/06 05:38:37;;;;;;;3.00;2.80;;;;;;;22.39;57.46;97794.00;5044593;28;20385;-31
2022/11/06 05:41:03;;;;;;;3.03;2.83;;;;;;;22.38;57.74;97782.88;5059524;28;20216;-31
2022/11/06 05:43:30;;;;;;;3.10;2.80;;;;;;;22.38;57.58;97788.00;5048476;28;20660;-31
2022/11/06 05:45:57;;;;;;;3.00;2.80;;;;;;;22.37;57.59;97785.41;5055186;28;20201;-31
2022/11/06 05:48:23;;;;;;;3.40;3.10;;;;;;;22.39;57.65;97791.44;5054463;28;20201;-31
2022/11/06 05:50:50;;;;;;;2.80;2.60;;;;;;;22.38;57.37;97793.13;5055573;28;20217;-31
2022/11/06 05:53:16;;;;;;;3.10;2.80;;;;;;;22.39;57.60;97786.34;5065070;28;20207;-31
2022/11/06 05:55:46;;;;;;;2.60;2.40;;;;;;;22.38;57.70;97776.91;5054271;28;20204;-31
2022/11/06 05:58:13;;;;;;;2.93;2.73;;;;;;;22.38;57.65;97777.78;5050849;28;20204;-31
2022/11/06 06:00:40;;;;;;;3.10;2.90;;;;;;;22.39;57.54;97771.84;5059268;28;20297;-31
2022/11/06 06:03:07;;;;;;;2.90;2.70;;;;;;;22.39;57.55;97758.16;5064154;28;20580;-31
2022/11/06 06:05:34;;;;;;;3.30;3.00;;;;;;;22.39;57.53;97760.72;5060260;28;20205;-31
2022/11/06 06:08:00;;;;;;;3.03;2.83;;;;;;;22.38;57.63;97764.97;5067817;28;20204;-31
2022/11/06 06:10:27;;;;;;;3.27;2.97;;;;;;;22.39;57.75;97765.84;5056796;28;20230;-31
2022/11/06 06:12:53;;;;;;;3.00;2.80;;;;;;;22.39;57.55;97770.97;5054242;28;20197;-31
2022/11/06 06:15:20;;;;;;;2.57;2.37;;;;;;;22.38;57.69;97764.97;5053903;28;20242;-31
2022/11/06 06:17:46;;;;;;;2.80;2.60;;;;;;;22.39;57.68;97776.09;5061388;28;20200;-31
2022/11/06 06:20:13;;;;;;;2.63;2.43;;;;;;;22.38;57.77;97762.41;5055909;28;20208;-31
2022/11/06 06:22:40;;;;;;;2.50;2.30;;;;;;;22.39;57.68;97751.34;5053631;28;20243;-31
2022/11/06 06:25:06;;;;;;;2.57;2.37;;;;;;;22.33;57.70;97745.19;5060114;28;20201;-31
2022/11/06 06:27:47;;;;;;;2.63;2.43;;;;;;;22.38;57.70;97749.59;5050975;28;20193;-31
2022/11/06 06:30:14;;;;;;;3.00;2.80;;;;;;;22.39;57.59;97758.16;5053837;28;20197;-31
2022/11/06 06:32:41;;;;;;;2.80;2.60;;;;;;;22.39;57.43;97745.34;5053808;28;20217;-30
2022/11/06 06:35:07;;;;;;;2.67;2.47;;;;;;;22.39;57.52;97758.16;5066464;28;20193;-31
2022/11/06 06:37:34;;;;;;;2.90;2.70;;;;;;;22.39;57.64;97750.47;5052592;28;20667;-31
2022/11/06 06:40:00;;;;;;;3.00;2.80;;;;;;;22.39;57.57;97755.59;5055183;28;20215;-31
2022/11/06 06:42:28;;;;;;;2.90;2.70;;;;;;;22.39;57.61;97747.91;5059367;28;20224;-31
2022/11/06 06:44:57;;;;;;;2.60;2.40;;;;;;;22.39;57.65;97753.91;5053504;28;20208;-31
2022/11/06 06:47:23;;;;;;;2.70;2.50;;;;;;;22.32;57.44;97743.44;5053684;28;20201;-31
2022/11/06 06:49:50;;;;;;;2.90;2.70;;;;;;;22.39;57.48;97753.91;5057738;28;20551;-31
2022/11/06 06:52:16;;;;;;;2.70;2.50;;;;;;;22.38;57.46;97752.16;5060347;28;20221;-31
2022/11/06 06:54:43;;;;;;;2.80;2.60;;;;;;;22.39;57.59;97755.59;5061012;28;20201;-31
2022/11/06 06:57:09;;;;;;;2.60;2.40;;;;;;;22.33;57.42;97745.19;5051187;28;20695;-31
2022/11/06 06:59:36;;;;;;;2.90;2.57;;;;;;;22.38;57.37;97754.72;5052715;28;20200;-31
2022/11/06 07:02:02;;;;;;;2.60;2.40;;;;;;;22.38;57.35;97766.69;5053583;28;20223;-31
2022/11/06 07:04:29;;;;;;;3.30;3.00;;;;;;;22.39;57.54;97764.16;5052782;28;20201;-31
2022/11/06 07:06:55;;;;;;;3.03;2.77;;;;;;;22.38;57.62;97770.09;5053574;28;20197;-31
2022/11/06 07:09:24;;;;;;;2.80;2.60;;;;;;;22.40;57.53;97775.25;5047534;28;20201;-31
2022/11/06 07:11:51;;;;;;;3.00;2.70;;;;;;;22.39;57.42;97783.78;5064416;28;20224;-31
2022/11/06 07:14:17;;;;;;;3.10;2.80;;;;;;;22.39;57.61;97786.34;5052546;28;20200;-31
2022/11/06 07:16:44;;;;;;;3.07;2.87;;;;;;;22.31;57.53;97778.41;5053045;28;20598;-31
2022/11/06 07:19:17;;;;;;;2.73;2.53;;;;;;;22.39;57.72;97802.56;5052933;28;20201;-31
2022/11/06 07:21:44;;;;;;;3.00;2.80;;;;;;;22.40;57.59;97811.09;5052936;28;20586;-31
2022/11/06 07:24:11;;;;;;;2.73;2.53;;;;;;;22.39;57.62;97811.94;5050304;28;20204;-31
2022/11/06 07:26:37;;;;;;;2.50;2.30;;;;;;;22.39;57.63;97807.69;5053405;28;20204;-31
2022/11/06 07:29:04;;;;;;;2.83;2.63;;;;;;;22.39;57.67;97817.94;5054890;28;20659;-31
2022/11/06 07:31:30;;;;;;;2.60;2.40;;;;;;;22.34;57.76;97810.91;5051400;28;20221;-31
2022/11/06 07:33:57;;;;;;;2.70;2.50;;;;;;;22.39;57.54;97807.69;5052506;28;20200;-31
2022/11/06 07:36:23;;;;;;;2.27;2.17;;;;;;;22.39;57.56;97812.81;5053694;28;20194;-31
2022/11/06 07:38:50;;;;;;;2.47;2.27;;;;;;;22.40;57.28;97809.44;5048518;28;20221;-31
2022/11/06 07:41:16;;;;;;;2.67;2.47;;;;;;;22.33;57.52;97797.28;5055863;28;20216;-31
2022/11/06 07:43:43;;;;;;;3.13;2.47;;;;;;;22.37;57.41;97793.97;5051736;28;20204;-31
2022/11/06 07:46:10;;;;;;;2.53;2.33;;;;;;;22.39;57.52;97801.69;5050252;28;20204;-31
2022/11/06 07:48:38;;;;;;;2.60;2.40;;;;;;;22.40;57.58;97798.31;5052105;28;20197;-31
2022/11/06 07:51:06;;;;;;;2.70;2.33;;;;;;;22.35;57.51;97798.16;5052647;28;20223;-31
2022/11/06 07:53:32;;;;;;;2.80;2.60;;;;;;;22.32;57.65;97785.28;5047155;28;20204;-31
2022/11/06 07:55:59;;;;;;;2.57;2.37;;;;;;;22.38;57.60;97798.25;5048285;28;20291;-31
2022/11/06 07:58:25;;;;;;;2.73;2.53;;;;;;;22.39;58.04;97796.56;5045729;28;20275;-31
2022/11/06 08:00:53;;;;;;;2.53;2.33;;;;;;;22.39;57.53;97804.25;5049978;28;20694;-31
2022/11/06 08:03:20;;;;;;;2.60;2.40;;;;;;;22.40;57.44;97798.31;5049200;28;20193;-31
2022/11/06 08:05:47;;;;;;;2.57;2.37;;;;;;;22.38;57.86;97785.44;5056150;28;20197;-31
2022/11/06 08:08:13;;;;;;;2.50;2.30;;;;;;;22.39;57.05;97791.44;5060219;28;20569;-31
2022/11/06 08:10:42;;;;;;;2.40;2.20;;;;;;;22.38;57.38;97779.47;5037676;28;20205;-31
2022/11/06 08:13:09;;;;;;;2.60;2.40;;;;;;;22.38;57.57;97789.72;5035713;28;20213;-31
2022/11/06 08:15:37;;;;;;;2.83;2.63;;;;;;;22.39;57.63;97786.34;5034886;28;20213;-31
2022/11/06 08:18:04;;;;;;;2.73;2.53;;;;;;;22.39;57.56;97782.09;5037575;28;20241;-31
2022/11/06 08:20:31;;;;;;;2.50;2.33;;;;;;;22.39;57.57;97773.53;5039202;28;20209;-31
2022/11/06 08:22:59;;;;;;;2.20;2.10;;;;;;;22.39;57.54;97769.28;5037048;28;20213;-31
2022/11/06 08:25:26;;;;;;;2.50;2.30;;;;;;;22.40;57.49;97765.00;5034605;28;20202;-31
2022/11/06 08:27:59;;;;;;;2.60;2.40;;;;;;;22.40;57.45;97749.66;5038242;28;20201;-31
2022/11/06 08:30:26;;;;;;;2.37;2.17;;;;;;;22.40;57.34;97755.66;5037374;28;20213;-31
2022/11/06 08:32:53;;;;;;;2.50;2.30;;;;;;;22.34;57.28;97750.34;5042270;28;20227;-31
2022/11/06 08:35:20;;;;;;;2.30;2.10;;;;;;;22.41;57.05;97767.63;5038700;28;20454;-31
2022/11/06 08:37:46;;;;;;;2.27;2.17;;;;;;;22.41;57.09;97770.19;5039984;28;20196;-31
2022/11/06 08:40:13;;;;;;;2.40;2.20;;;;;;;22.41;57.05;97772.75;5039806;28;20209;-31
2022/11/06 08:42:40;;;;;;;2.20;2.10;;;;;;;22.42;56.95;97771.06;5042388;28;20220;-31
2022/11/06 08:45:07;;;;;;;2.80;2.37;;;;;;;22.42;56.99;97764.25;5040521;28;20213;-31
2022/11/06 08:47:33;;;;;;;2.57;2.30;;;;;;;22.42;56.98;97763.38;5044939;28;20201;-31
2022/11/06 08:50:00;;;;;;;2.40;2.20;;;;;;;22.41;56.38;97749.69;5050447;28;20197;-31
2022/11/06 08:52:26;;;;;;;2.23;2.03;;;;;;;22.42;56.34;97755.69;5056908;28;20216;-31
2022/11/06 08:54:59;;;;;;;2.40;2.20;;;;;;;22.42;56.40;97748.88;5052780;28;20197;-31
2022/11/06 08:57:26;;;;;;;2.63;2.20;;;;;;;22.42;56.32;97741.22;5054993;28;20192;-31
2022/11/06 08:59:52;;;;;;;3.17;2.23;;;;;;;22.39;56.60;97725.75;5051939;28;20197;-31
2022/11/06 09:02:19;;;;;;;2.23;2.00;;;;;;;22.43;56.84;97721.56;5051449;28;20707;-31
2022/11/06 09:04:45;;;;;;;2.50;2.30;;;;;;;22.39;56.93;97712.06;5048407;28;20697;-31
2022/11/06 09:07:12;;;;;;;2.50;2.30;;;;;;;22.44;55.85;97723.31;5055610;28;20212;-31
2022/11/06 09:09:38;;;;;;;2.30;2.10;;;;;;;22.44;56.39;97708.81;5051784;28;20547;-31
2022/11/06 09:12:05;;;;;;;3.30;2.20;;;;;;;22.46;56.31;97701.16;5056594;28;20227;-31
2022/11/06 09:14:33;;;;;;;2.40;2.20;;;;;;;22.46;56.32;97693.47;5058386;28;20205;-31
2022/11/06 09:16:59;;;;;;;2.00;1.90;;;;;;;22.47;56.26;97698.66;5044108;28;20683;-31
2022/11/06 09:19:25;;;;;;;3.57;2.03;;;;;;;22.47;56.35;97690.97;5052361;28;20197;-31
2022/11/06 09:21:52;;;;;;;2.07;1.90;;;;;;;22.48;56.42;97687.59;5045860;28;20217;-31
2022/11/06 09:24:20;;;;;;;2.50;1.90;;;;;;;22.48;56.37;97684.16;5047561;28;20197;-31
2022/11/06 09:27:07;;;;;;;2.23;2.10;;;;;;;22.48;56.20;97679.91;5051788;28;20193;-31
2022/11/06 09:29:33;;;;;;;2.30;2.10;;;;;;;22.49;56.30;97670.50;5053295;28;20201;-31
2022/11/06 09:32:00;;;;;;;2.37;2.17;;;;;;;22.44;56.38;97651.63;5055359;28;20221;-31
2022/11/06 09:34:26;;;;;;;2.50;2.30;;;;;;;22.48;56.36;97667.09;5050631;28;20197;-31
2022/11/06 09:36:53;;;;;;;2.10;2.00;;;;;;;22.45;56.45;97659.34;5055115;28;20197;-31
2022/11/06 09:39:19;;;;;;;2.40;2.20;;;;;;;22.49;56.44;97657.72;5052012;28;20209;-31
2022/11/06 09:41:57;;;;;;;2.33;2.17;;;;;;;22.49;56.21;97645.78;5052350;28;20213;-31
2022/11/06 09:44:30;;;;;;;3.50;1.90;;;;;;;22.48;56.19;97633.81;5052641;28;20209;-31
2022/11/06 09:46:56;;;;;;;2.80;1.97;;;;;;;22.45;56.55;97626.03;5050519;28;20198;-31
2022/11/06 09:49:51;;;;;;;1.97;1.87;;;;;;;22.47;56.47;97638.91;5053428;28;20197;-31
2022/11/06 09:52:47;;;;;;;2.30;2.10;;;;;;;22.46;56.56;97625.22;5045529;28;20221;-31
2022/11/06 09:55:16;;;;;;;5.87;1.93;;;;;;;22.47;56.53;97621.81;5056965;28;20204;-31
2022/11/06 09:57:52;;;;;;;2.30;2.10;;;;;;;22.47;56.27;97626.09;5055830;28;20201;-32
2022/11/06 10:00:18;;;;;;;2.00;1.90;;;;;;;22.41;56.40;97610.56;5029017;28;20196;-31
2022/11/06 10:02:51;;;;;;;4.30;3.90;;;;;;;22.48;56.14;97615.88;5037411;28;20229;-31
2022/11/06 10:05:31;;;;;;;6.17;5.67;;;;;;;22.46;54.86;97598.72;5049812;28;20204;-31
2022/11/06 10:08:18;;;;;;;9.10;7.47;;;;;;;22.48;53.09;97591.97;5039499;28;20216;-31
2022/11/06 10:11:14;;;;;;;9.53;7.87;;;;;;;22.47;53.35;97593.63;5059085;28;20219;-31
2022/11/06 10:14:10;;;;;;;8.33;7.50;;;;;;;22.47;53.54;97596.19;5031828;28;20723;-31
2022/11/06 10:16:48;;;;;;;8.50;7.70;;;;;;;22.39;53.69;97587.47;5032439;28;20209;-31
2022/11/06 10:19:35;;;;;;;9.53;7.73;;;;;;;22.46;53.76;97594.47;5021181;28;20285;-31
2022/11/06 10:22:10;;;;;;;9.47;7.17;;;;;;;22.45;54.06;97587.63;5041202;28;20235;-31
2022/11/06 10:24:56;;;;;;;7.67;6.50;;;;;;;22.39;54.16;97577.22;5034927;28;20200;-31
2022/11/06 10:27:26;;;;;;;7.03;6.33;;;;;;;22.45;54.34;97600.44;5037680;28;20205;-31
2022/11/06 10:30:07;;;;;;;8.33;7.43;;;;;;;22.45;54.17;97582.50;5037331;28;20331;-31
2022/11/06 10:32:58;;;;;;;7.07;6.23;;;;;;;22.45;54.42;97576.50;5034212;28;20316;-31
2022/11/06 10:35:56;;;;;;;6.77;6.17;;;;;;;22.45;54.36;97562.03;5035554;28;20202;-31
2022/11/06 10:38:28;;;;;;;6.67;6.07;;;;;;;22.45;54.31;97556.91;5037199;28;20223;-31
2022/11/06 10:40:55;;;;;;;7.33;6.23;;;;;;;22.43;54.07;97548.28;5034689;28;20596;-31
2022/11/06 10:43:51;;;;;;;7.07;6.30;;;;;;;22.46;54.27;97547.50;5039149;28;20750;-31
2022/11/06 10:46:32;;;;;;;7.43;6.60;;;;;;;22.46;54.31;97542.38;5039039;28;20575;-31
2022/11/06 10:49:24;;;;;;;9.20;5.83;;;;;;;22.45;54.39;97541.53;5020800;28;20598;-31
2022/11/06 10:52:06;;;;;;;6.27;5.67;;;;;;;21.85;54.83;97429.88;5035709;28;20228;-31
2022/11/06 10:54:52;;;;;;;6.30;5.70;;;;;;;22.34;54.74;97501.97;5036106;28;20212;-31
2022/11/06 10:57:53;;;;;;;7.70;6.17;;;;;;;22.45;54.74;97518.47;5036026;28;20446;-30
2022/11/06 11:00:19;;;;;;;6.03;5.43;;;;;;;22.42;54.75;97508.16;5035764;28;20201;-31
2022/11/06 11:02:54;;;;;;;6.13;4.70;;;;;;;22.44;54.87;97506.50;5036336;28;20274;-31
2022/11/06 11:05:22;;;;;;;7.00;5.60;;;;;;;22.44;54.83;97506.50;5037892;28;20209;-31
2022/11/06 11:07:49;;;;;;;6.63;5.10;;;;;;;21.82;54.74;97400.78;5022080;28;20730;-31
2022/11/06 11:10:21;;;;;;;5.80;5.30;;;;;;;22.44;54.93;97505.66;5033532;28;20217;-31
2022/11/06 11:12:49;;;;;;;5.27;4.63;;;;;;;22.44;54.93;97495.41;5035375;28;20240;-31
2022/11/06 11:15:19;;;;;;;5.10;4.70;;;;;;;22.40;54.90;97491.88;5037359;28;20686;-31
2022/11/06 11:18:06;;;;;;;6.10;5.00;;;;;;;22.44;55.06;97498.81;5036724;28;20201;-31
2022/11/06 11:20:34;;;;;;;5.20;4.70;;;;;;;22.44;55.00;97487.72;5037845;28;20208;-31
2022/11/06 11:23:27;;;;;;;5.57;5.07;;;;;;;22.44;55.13;97488.56;5039272;28;20907;-31
2022/11/06 11:25:55;;;;;;;5.10;4.60;;;;;;;22.36;55.11;97466.16;5033292;28;20240;-31
2022/11/06 11:28:21;;;;;;;5.30;4.17;;;;;;;22.44;55.15;97473.19;5018458;28;20217;-31
2022/11/06 11:31:07;;;;;;;4.57;4.17;;;;;;;22.43;55.24;97468.03;5034465;28;20738;-31
2022/11/06 11:33:34;;;;;;;4.80;4.40;;;;;;;22.32;55.17;97436.19;5035697;28;20243;-31
2022/11/06 11:36:01;;;;;;;7.73;4.03;;;;;;;22.44;54.47;97451.88;5020408;28;20683;-31
2022/11/06 11:38:28;;;;;;;4.93;4.13;;;;;;;22.38;54.10;97442.31;5037775;28;20219;-31
2022/11/06 11:41:08;;;;;;;4.50;4.10;;;;;;;22.43;54.51;97404.91;5038610;28;20221;-31
2022/11/06 11:43:34;;;;;;;4.80;4.40;;;;;;;22.42;54.85;97428.78;5028756;28;20680;-31
2022/11/06 11:46:07;;;;;;;4.13;3.73;;;;;;;22.43;55.39;97419.38;5037135;28;20209;-32
2022/11/06 11:48:42;;;;;;;3.93;3.63;;;;;;;22.42;55.31;97425.34;5034905;28;20208;-31
2022/11/06 11:51:23;;;;;;;5.80;3.50;;;;;;;22.31;55.54;97390.91;5037586;28;20228;-31
2022/11/06 11:53:50;;;;;;;3.70;3.40;;;;;;;22.40;55.38;97409.06;5034988;28;20703;-31
2022/11/06 11:56:18;;;;;;;3.83;3.47;;;;;;;22.42;55.39;97408.28;5023443;28;20204;-31
2022/11/06 11:59:05;;;;;;;4.20;3.90;;;;;;;22.41;55.28;97393.75;5037942;28;20200;-31
2022/11/06 12:01:36;;;;;;;4.07;3.50;;;;;;;22.36;55.41;97394.47;5039026;28;20224;-31
2022/11/06 12:04:25;;;;;;;3.90;3.60;;;;;;;22.39;55.16;97397.97;5033561;28;20565;-31
2022/11/06 12:07:02;;;;;;;4.10;3.73;;;;;;;22.37;54.95;97393.63;5048297;28;20267;-31
2022/11/06 12:09:32;;;;;;;4.33;3.93;;;;;;;22.43;55.17;97401.47;5048362;28;20197;-31